Time;durP1;ratioP1;P1;durP2;ratioP2;P2;SDS_P1;SDS_P2;PMS_P1;PMS_P2;Temp;Humidity;BMP_temperature;BMP_pressure;BME280_temperature;BME280_humidity;BME280_pressure;Samples;Min_cycle;Max_cycle;Signal;HPM_P1;HPM_P2
2022/02/10 00:04:19;;;;;;;6.03;3.07;;;;;;;;;;5074100;28;20904;-72
2022/02/10 00:07:03;;;;;;;11.27;3.17;;;;;;;;;;5057402;28;20494;-71
2022/02/10 00:18:21;;;;;;;5.93;2.90;;;;;;;;;;5003269;28;20822;-71
2022/02/10 00:20:52;;;;;;;5.80;2.57;;;;;;;;;;5051109;28;20453;-71
2022/02/10 00:23:33;;;;;;;3.97;2.83;;;;;;;;;;5064777;28;20511;-71
2022/02/10 00:34:28;;;;;;;3.10;2.70;;;;;;;;;;5051440;28;20470;-71
2022/02/10 00:37:11;;;;;;;7.50;3.20;;;;;;;;;;5057771;28;20824;-71
2022/02/10 00:40:04;;;;;;;3.23;2.70;;;;;;;;;;5062715;28;20808;-71
2022/02/10 00:42:31;;;;;;;5.97;2.80;;;;;;;;;;5058412;28;20441;-71
2022/02/10 00:44:58;;;;;;;5.20;3.20;;;;;;;;;;5067750;28;20810;-71
2022/02/10 00:47:28;;;;;;;4.60;3.60;;;;;;;;;;5055609;28;20464;-71
2022/02/10 00:49:58;;;;;;;3.90;2.40;;;;;;;;;;5059364;28;20480;-71
2022/02/10 00:52:25;;;;;;;3.83;2.93;;;;;;;;;;5053073;28;20539;-71
2022/02/10 00:54:52;;;;;;;5.63;2.87;;;;;;;;;;5064159;28;20472;-71
2022/02/10 00:57:21;;;;;;;4.20;2.90;;;;;;;;;;5072159;28;20477;-71
2022/02/10 01:00:05;;;;;;;4.50;3.00;;;;;;;;;;5048227;28;20457;-71
2022/02/10 01:07:01;;;;;;;3.87;2.83;;;;;;;;;;5067026;28;20944;-71
2022/02/10 01:11:11;;;;;;;5.87;2.97;;;;;;;;;;5059757;28;20421;-71
2022/02/10 01:13:52;;;;;;;4.67;2.40;;;;;;;;;;5069535;28;21019;-71
2022/02/10 01:29:31;;;;;;;4.93;2.40;;;;;;;;;;5069678;28;20486;-71
2022/02/10 01:30:08;;;;;;;4.07;3.10;;;;;;;;;;5069245;28;20818;-70
2022/02/10 01:32:38;;;;;;;4.03;2.67;;;;;;;;;;5053512;28;20482;-70
2022/02/10 01:35:10;;;;;;;6.93;3.37;;;;;;;;;;5052568;28;20450;-70
2022/02/10 01:37:38;;;;;;;4.87;2.83;;;;;;;;;;5054312;28;20540;-70
2022/02/10 01:40:10;;;;;;;5.63;3.10;;;;;;;;;;5070014;28;20532;-70
2022/02/10 02:05:15;;;;;;;4.37;2.83;;;;;;;;;;5054169;28;20782;-70
2022/02/10 02:07:43;;;;;;;3.60;2.20;;;;;;;;;;5056610;28;20888;-70
2022/02/10 02:10:21;;;;;;;3.70;2.87;;;;;;;;;;5072140;28;20532;-70
2022/02/10 02:12:57;;;;;;;3.20;2.20;;;;;;;;;;5062292;28;21003;-70
2022/02/10 02:15:27;;;;;;;8.57;3.00;;;;;;;;;;5057881;28;20438;-70
2022/02/10 02:17:54;;;;;;;3.83;2.83;;;;;;;;;;5059620;28;20477;-70
2022/02/10 02:20:26;;;;;;;3.50;2.50;;;;;;;;;;5064783;28;20445;-70
2022/02/10 02:25:40;;;;;;;4.53;2.50;;;;;;;;;;5010757;28;20795;-70
2022/02/10 02:31:17;;;;;;;3.57;2.67;;;;;;;;;;5044362;28;20458;-70
2022/02/10 03:08:17;;;;;;;3.30;2.20;;;;;;;;;;5057937;28;20477;-70
2022/02/10 03:11:10;;;;;;;4.10;2.33;;;;;;;;;;4966974;28;20455;-70
2022/02/10 03:13:44;;;;;;;4.37;2.30;;;;;;;;;;5039213;28;21004;-70
2022/02/10 03:16:37;;;;;;;2.87;2.30;;;;;;;;;;5054686;28;20934;-70
2022/02/10 03:22:30;;;;;;;2.97;2.20;;;;;;;;;;5064813;28;20494;-71
2022/02/10 04:06:52;;;;;;;4.20;2.30;;;;;;;;;;4980551;28;20550;-71
2022/02/10 04:10:00;;;;;;;2.83;2.53;;;;;;;;;;5064972;28;20882;-70
2022/02/10 04:12:40;;;;;;;3.40;2.90;;;;;;;;;;5060285;28;20442;-70
2022/02/10 04:15:18;;;;;;;3.90;2.50;;;;;;;;;;5058774;28;20454;-70
2022/02/10 04:20:49;;;;;;;3.67;2.50;;;;;;;;;;5057406;28;20430;-71
2022/02/10 04:23:36;;;;;;;4.10;2.37;;;;;;;;;;5051846;28;20445;-69
2022/02/10 04:26:26;;;;;;;5.77;2.40;;;;;;;;;;5056907;28;20438;-70
2022/02/10 04:41:49;;;;;;;3.13;2.20;;;;;;;;;;5064153;28;20445;-69
2022/02/10 04:43:43;;;;;;;2.50;2.30;;;;;;;;;;5068258;28;20441;-69
2022/02/10 04:55:24;;;;;;;3.83;2.23;;;;;;;;;;4996393;28;20543;-70
2022/02/10 05:01:04;;;;;;;4.97;2.43;;;;;;;;;;5063529;28;20425;-70
2022/02/10 05:12:44;;;;;;;5.23;3.20;;;;;;;;;;5057906;28;20435;-72
2022/02/10 05:21:37;;;;;;;3.57;1.57;;;;;;;;;;5031855;28;20477;-70
2022/02/10 05:33:18;;;;;;;3.20;2.40;;;;;;;;;;5065960;28;20467;-74
2022/02/10 05:35:48;;;;;;;3.10;2.13;;;;;;;;;;5063844;28;20529;-73
2022/02/10 05:38:23;;;;;;;4.10;2.50;;;;;;;;;;5056502;28;20534;-70
2022/02/10 05:47:06;;;;;;;15.63;3.53;;;;;;;;;;5036482;28;20477;-72
2022/02/10 05:55:42;;;;;;;3.57;2.00;;;;;;;;;;5050064;28;20876;-73
2022/02/10 05:58:34;;;;;;;6.90;2.50;;;;;;;;;;5072597;28;20441;-72
2022/02/10 07:02:38;;;;;;;5.27;3.33;;;;;;;;;;4888581;29;20885;-73
2022/02/10 07:07:24;;;;;;;3.50;3.20;;;;;;;;;;4893696;29;20481;-73
2022/02/10 07:54:10;;;;;;;3.73;2.90;;;;;;;;;;5049336;28;20474;-74
2022/02/10 08:51:26;;;;;;;5.83;3.17;;;;;;;;;;5010961;28;20494;-72
2022/02/10 08:59:54;;;;;;;3.93;2.90;;;;;;;;;;5072284;28;20396;-73
2022/02/10 09:05:38;;;;;;;4.07;2.77;;;;;;;;;;5017980;28;20534;-73
2022/02/10 10:20:17;;;;;;;7.57;2.63;;;;;;;;;;3529472;22;20946;-72
2022/02/10 10:23:09;;;;;;;3.20;2.23;;;;;;;;;;5044855;28;20504;-71
2022/02/10 10:49:10;;;;;;;7.93;3.50;;;;;;;;;;5033052;28;20773;-71
2022/02/10 10:51:24;;;;;;;5.00;3.37;;;;;;;;;;5031636;28;20466;-71
2022/02/10 10:54:03;;;;;;;6.50;2.70;;;;;;;;;;5033071;28;20505;-71
2022/02/10 10:56:34;;;;;;;5.33;2.90;;;;;;;;;;5033524;28;20438;-72
2022/02/10 10:59:19;;;;;;;3.63;3.07;;;;;;;;;;5018886;28;20440;-71
2022/02/10 11:38:46;;;;;;;3.97;2.90;;;;;;;;;;5052729;28;20421;-71
2022/02/10 11:41:37;;;;;;;4.50;3.67;;;;;;;;;;5051678;28;20474;-70
2022/02/10 13:23:34;;;;;;;5.53;4.53;;;;;;;;;;5009934;28;20494;-72
2022/02/10 13:49:53;;;;;;;7.70;4.97;;;;;;;;;;5011864;28;20451;-71
2022/02/10 14:14:06;;;;;;;7.33;4.90;;;;;;;;;;4991877;28;20530;-72
2022/02/10 14:16:40;;;;;;;9.13;5.43;;;;;;;;;;5014498;28;20455;-72
2022/02/10 14:19:16;;;;;;;8.53;6.23;;;;;;;;;;5014090;28;20440;-71
2022/02/10 14:21:59;;;;;;;6.80;5.60;;;;;;;;;;5014095;28;20516;-72
2022/02/10 14:27:14;;;;;;;8.53;5.77;;;;;;;;;;4988226;28;20428;-71
2022/02/10 14:29:41;;;;;;;8.90;5.67;;;;;;;;;;5014555;28;20577;-72
2022/02/10 14:32:12;;;;;;;11.30;5.50;;;;;;;;;;5013613;28;20455;-71
2022/02/10 14:34:39;;;;;;;7.83;5.50;;;;;;;;;;5013886;28;20455;-71
2022/02/10 14:40:01;;;;;;;9.00;5.20;;;;;;;;;;4994773;28;20436;-72
2022/02/10 15:30:36;;;;;;;10.20;4.70;;;;;;;;;;5012916;28;20479;-71
2022/02/10 15:33:18;;;;;;;6.40;4.80;;;;;;;;;;5012244;28;20854;-71
2022/02/10 15:47:21;;;;;;;12.77;5.80;;;;;;;;;;5012591;28;20478;-72
2022/02/10 16:15:18;;;;;;;8.90;5.30;;;;;;;;;;5052058;28;20474;-72
2022/02/10 16:17:46;;;;;;;10.73;5.50;;;;;;;;;;5128942;28;20507;-72
2022/02/10 16:20:18;;;;;;;7.60;6.03;;;;;;;;;;5128104;28;20447;-72
2022/02/10 16:22:58;;;;;;;7.90;6.47;;;;;;;;;;5128420;28;20461;-71
2022/02/10 16:25:26;;;;;;;11.20;5.87;;;;;;;;;;5128364;28;20438;-70
2022/02/10 16:28:08;;;;;;;14.23;5.50;;;;;;;;;;5128646;28;20508;-71
2022/02/10 16:30:35;;;;;;;8.63;5.47;;;;;;;;;;5128636;28;20495;-73
2022/02/10 16:33:03;;;;;;;7.23;6.50;;;;;;;;;;5127404;28;20972;-71
2022/02/10 16:35:30;;;;;;;8.93;4.70;;;;;;;;;;5128519;28;20485;-71
2022/02/10 16:37:57;;;;;;;3.97;3.17;;;;;;;;;;5128377;28;20451;-71
2022/02/10 16:40:25;;;;;;;6.07;3.93;;;;;;;;;;5127741;28;20533;-73
2022/02/10 16:42:53;;;;;;;5.80;3.17;;;10.40;1.00;;;;;;5127764;28;20566;-67
2022/02/10 16:45:20;;;;;;;5.23;3.53;;;9.00;1.00;;;;;;5127385;28;20951;-69
2022/02/10 16:47:47;;;;;;;5.50;4.13;;;8.90;1.00;;;;;;5128395;28;20499;-66
2022/02/10 16:50:14;;;;;;;4.10;3.00;;;8.80;1.00;;;;;;5126844;28;20529;-70
2022/02/10 16:52:45;;;;;;;5.37;3.93;;;8.80;1.00;;;;;;5127800;28;20443;-67
2022/02/10 16:55:21;;;;;;;3.60;2.67;;;8.90;1.00;;;;;;5127232;28;20498;-68
2022/02/10 16:58:01;;;;;;;12.07;3.40;;;8.90;1.00;;;;;;5121694;28;20462;-69
2022/02/10 17:03:29;;;;;;;5.53;3.70;;;8.80;1.00;;;;;;5120942;28;20427;-69
2022/02/10 17:06:08;;;;;;;7.30;3.33;;;8.80;1.00;;;;;;5117103;28;20474;-68
2022/02/10 17:14:11;;;;;;;3.50;2.67;;;8.80;1.00;;;;;;5110205;28;20466;-69
2022/02/10 17:19:47;;;;;;;9.43;8.60;;;8.80;1.00;;;;;;5111076;28;20424;-69
2022/02/10 17:25:15;;;;;;;3.13;2.47;;;8.70;99.90;;;;;;5106826;28;20560;-68
2022/02/10 17:27:45;;;;;;;4.57;3.57;;;8.70;99.90;;;;;;5107750;28;20440;-68
2022/02/10 17:30:50;;;;;;;3.90;2.47;;;8.70;99.90;;;;;;5109716;28;20470;-68
2022/02/10 17:33:20;;;;;;;4.47;4.07;;;8.70;99.90;;;;;;5105573;28;20443;-69
2022/02/10 17:36:04;;;;;;;3.63;2.73;;;8.80;99.90;;;;;;5109000;28;20444;-68
2022/02/10 17:44:10;;;;;;;5.20;3.80;;;8.80;99.90;;;;;;5109674;28;20432;-70
2022/02/10 17:46:52;;;;;;;4.83;4.17;;;8.70;99.90;;;;;;5107182;28;20447;-67
2022/02/10 17:52:12;;;;;;;4.90;4.00;;;8.70;99.90;;;;;;5108975;28;20422;-69
2022/02/10 17:54:41;;;;;;;4.37;3.10;;;8.70;99.90;;;;;;5109595;28;20587;-69
2022/02/10 17:57:08;;;;;;;4.87;2.57;;;8.60;99.90;;;;;;5105725;28;20480;-68
2022/02/10 17:59:35;;;;;;;6.70;4.63;;;8.70;99.90;;;;;;5109637;28;20450;-70
2022/02/10 18:02:02;;;;;;;3.43;3.13;;;8.70;99.90;;;;;;5107572;28;20439;-70
2022/02/10 18:04:31;;;;;;;4.73;3.87;;;8.70;99.90;;;;;;5112813;28;20479;-68
2022/02/10 18:06:59;;;;;;;2.97;2.67;;;8.60;99.90;;;;;;5110340;28;20860;-68
2022/02/10 18:09:56;;;;;;;5.43;3.30;;;8.60;99.90;;;;;;5112271;28;20457;-68
2022/02/10 18:15:23;;;;;;;5.50;3.13;;;8.50;99.90;;;;;;5105786;28;20463;-68
2022/02/10 18:17:56;;;;;;;4.07;2.73;;;8.50;1.00;;;;;;5098802;28;20446;-67
2022/02/10 18:20:31;;;;;;;6.00;3.93;;;8.50;1.00;;;;;;5105253;28;20439;-67
2022/02/10 18:23:08;;;;;;;3.70;3.03;;;8.40;1.00;;;;;;5111391;28;20439;-68
2022/02/10 18:25:48;;;;;;;5.57;2.90;;;8.40;1.00;;;;;;5104814;28;20443;-67
2022/02/10 18:28:28;;;;;;;5.30;3.13;;;8.50;1.00;;;;;;5107929;28;20493;-68
2022/02/10 19:09:36;;;;;;;4.67;2.93;;;8.40;1.00;;;;;;5098236;28;20960;-67
2022/02/10 19:12:13;;;;;;;6.17;3.17;;;8.40;1.00;;;;;;5102361;28;20440;-68
2022/02/10 19:14:40;;;;;;;3.10;2.40;;;8.30;1.00;;;;;;5104952;28;20574;-68
2022/02/10 19:17:07;;;;;;;4.50;3.17;;;8.30;1.00;;;;;;5102397;28;20887;-67
2022/02/10 19:19:34;;;;;;;5.80;3.20;;;8.40;1.00;;;;;;5106698;28;20488;-67
2022/02/10 19:22:01;;;;;;;3.40;2.80;;;;;;;;;;5104660;28;20476;-68
2022/02/10 19:24:29;;;;;;;6.23;2.93;;;;;;;;;;5103790;28;20459;-69
2022/02/10 19:26:57;;;;;;;4.00;2.70;;;;;;;;;;5102009;28;20454;-66
2022/02/10 19:29:25;;;;;;;3.90;2.43;;;;;;;;;;5099596;28;21312;-67
2022/02/10 19:31:54;;;;;;;3.97;2.57;;;;;;;;;;5099373;28;20465;-67
2022/02/10 19:34:21;;;;;;;6.50;3.37;;;;;;;;;;5103425;28;20484;-68
2022/02/10 19:36:49;;;;;;;2.90;2.43;;;;;;;;;;5105087;28;20538;-65
2022/02/10 19:39:20;;;;;;;4.30;3.23;;;;;;;;;;5101422;28;20821;-67
2022/02/10 19:41:49;;;;;;;5.47;3.33;;;;;;;;;;5104382;28;20931;-66
2022/02/10 19:44:18;;;;;;;3.90;2.80;;;;;;;;;;5106536;28;20455;-67
2022/02/10 19:46:45;;;;;;;5.50;2.73;;;;;;;;;;5108006;28;21007;-67
2022/02/10 19:49:18;;;;;;;3.27;2.97;;;;;;;;;;5101518;28;20448;-67
2022/02/10 19:51:46;;;;;;;5.60;3.73;;;;;;;;;;5104125;28;20441;-68
2022/02/10 19:54:14;;;;;;;7.87;4.60;;;;;;;;;;5103011;28;20483;-67
2022/02/10 19:56:42;;;;;;;7.30;4.13;;;;;;;;;;5107268;28;20528;-67
2022/02/10 19:59:15;;;;;;;8.23;4.77;;;;;;;;;;5107829;28;20924;-67
2022/02/10 20:01:44;;;;;;;7.20;4.97;;;;;;;;;;5107576;28;20455;-67
2022/02/10 20:04:11;;;;;;;13.53;4.53;;;;;;;;;;5105463;28;20847;-67
2022/02/10 20:06:39;;;;;;;4.70;3.50;;;;;;;;;;5109816;28;21012;-66
2022/02/10 20:09:06;;;;;;;10.73;8.97;;;;;;;;;;5110113;28;20451;-69
2022/02/10 20:11:34;;;;;;;5.30;3.00;;;;;;;;;;5100742;28;20467;-68
2022/02/10 20:14:01;;;;;;;6.33;3.30;;;;;;;;;;5107252;28;20463;-68
2022/02/10 20:16:28;;;;;;;5.90;3.03;;;;;;;;;;5107586;28;20550;-68
2022/02/10 20:18:57;;;;;;;4.37;3.00;;;;;;;;;;5103438;28;20497;-68
2022/02/10 20:21:24;;;;;;;5.57;3.33;;;;;;;;;;5102691;28;20454;-67
2022/02/10 20:23:51;;;;;;;4.10;3.20;;;;;;;;;;5107078;28;22072;-67
2022/02/10 20:26:18;;;;;;;4.43;3.10;;;;;;;;;;5104001;28;20951;-67
2022/02/10 20:28:45;;;;;;;3.90;2.80;;;;;;;;;;5105554;28;20471;-68
2022/02/10 20:31:13;;;;;;;3.43;2.93;;;;;;;;;;5106750;28;20471;-68
2022/02/10 20:33:41;;;;;;;7.20;3.10;;;;;;;;;;5106964;28;20455;-68
2022/02/10 20:36:10;;;;;;;6.53;3.50;;;;;;;;;;5105913;28;20479;-67
2022/02/10 20:38:41;;;;;;;5.73;3.20;;;;;;;;;;5105639;28;20477;-67
2022/02/10 20:41:12;;;;;;;5.97;3.60;;;;;;;;;;5109284;28;20500;-68
2022/02/10 20:43:40;;;;;;;5.00;3.93;;;;;;;;;;5107326;28;20808;-67
2022/02/10 20:46:10;;;;;;;3.83;3.07;;;;;;;;;;5106103;28;20515;-69
2022/02/10 20:48:39;;;;;;;4.37;3.57;;;;;;;;;;5109561;28;20508;-67
2022/02/10 20:51:08;;;;;;;4.00;3.40;;;;;;;;;;5109117;28;20500;-69
2022/02/10 20:53:38;;;;;;;5.10;3.57;;;;;;;;;;5106876;28;20511;-68
2022/02/10 20:56:06;;;;;;;5.03;3.47;;;;;;;;;;5107772;28;20554;-69
2022/02/10 20:58:34;;;;;;;5.00;3.23;;;;;;;;;;5107085;28;20470;-68
2022/02/10 21:01:03;;;;;;;4.67;3.37;;;;;;;;;;5109308;28;20547;-67
2022/02/10 21:03:33;;;;;;;6.17;3.80;;;;;;;;;;5108147;28;20632;-67
2022/02/10 21:06:07;;;;;;;5.80;3.60;;;;;;;;;;5109827;28;20535;-67
2022/02/10 21:08:41;;;;;;;6.10;3.80;;;;;;;;;;5109671;28;21491;-67
2022/02/10 21:11:10;;;;;;;3.83;3.40;;;;;;;;;;5103219;28;20471;-67
2022/02/10 21:13:37;;;;;;;6.80;4.17;;;;;;;;;;5113143;28;20454;-67
2022/02/10 21:16:05;;;;;;;5.23;4.00;;;;;;;;;;5112111;28;20471;-70
2022/02/10 21:18:33;;;;;;;4.70;4.20;;;;;;;;;;5113734;28;20530;-66
2022/02/10 21:21:05;;;;;;;6.17;4.10;;;;;;;;;;5112038;28;20509;-67
2022/02/10 21:23:37;;;;;;;4.60;4.10;;;;;;;;;;5113071;28;20542;-68
2022/02/10 21:26:06;;;;;;;6.03;3.50;;;;;;;;;;5105963;28;21263;-71
2022/02/10 21:28:37;;;;;;;4.53;4.00;;;;;;;;;;5113564;28;20534;-72
2022/02/10 21:31:06;;;;;;;6.20;4.17;;;;;;;;;;5113479;28;20901;-72
2022/02/10 21:33:47;;;;;;;6.00;4.10;;;;;;;;;;5111928;28;20999;-71
2022/02/10 21:39:26;;;;;;;5.47;3.27;;;;;;;;;;5100401;28;20518;-71
2022/02/10 21:45:28;;;;;;;6.57;4.70;;;;;;;;;;5068049;28;20436;-71
2022/02/10 21:47:51;;;;;;;5.93;3.30;;;;;;;;;;5108930;28;20947;-71
2022/02/10 21:53:45;;;;;;;17.03;4.57;;;;;;;;;;5109019;28;20805;-71
2022/02/10 22:10:30;;;;;;;4.07;3.57;;;;;;;;;;5112394;28;20420;-69
2022/02/10 22:18:41;;;;;;;8.07;4.10;;;;;;;;;;5112040;28;20431;-70
2022/02/10 22:21:10;;;;;;;4.73;3.70;;;;;;;;;;5111023;28;20456;-70
2022/02/10 22:23:42;;;;;;;5.87;3.57;;;;;;;;;;5112136;28;20927;-70
2022/02/10 22:26:17;;;;;;;5.80;3.97;;;;;;;;;;5111103;28;20439;-70
2022/02/10 22:28:50;;;;;;;7.90;4.37;;;;;;;;;;5112742;28;20858;-70
2022/02/10 22:31:32;;;;;;;5.10;4.00;;;;;;;;;;5112002;28;20439;-70
2022/02/10 22:34:11;;;;;;;4.40;3.87;;;;;;;;;;5111667;28;20423;-70
2022/02/10 22:36:42;;;;;;;7.03;4.27;;;;;;;;;;5104707;28;20463;-69
2022/02/10 22:39:10;;;;;;;6.20;4.43;;;;;;;;;;5107560;28;20959;-69
2022/02/10 22:41:37;;;;;;;5.83;3.80;;;;;;;;;;5110740;28;20447;-71
2022/02/10 22:44:05;;;;;;;4.43;3.00;;;;;;;;;;5107520;28;21238;-70
2022/02/10 22:46:32;;;;;;;6.37;3.80;;;;;;;;;;5111143;28;20535;-69
2022/02/10 22:49:01;;;;;;;10.00;4.10;;;;;;;;;;5112683;28;20466;-70
2022/02/10 22:51:30;;;;;;;6.20;3.43;;;;;;;;;;5111439;28;20831;-70
2022/02/10 22:53:57;;;;;;;7.03;3.80;;;;;;;;;;5109946;28;20475;-69
2022/02/10 22:56:28;;;;;;;4.77;3.23;;;;;;;;;;5111095;28;20673;-70
2022/02/10 22:58:56;;;;;;;6.93;3.70;;;;;;;;;;5111604;28;20534;-70
2022/02/10 23:01:23;;;;;;;7.50;4.83;;;;;;;;;;5110484;28;21134;-69
2022/02/10 23:03:51;;;;;;;6.87;3.70;;;;;;;;;;5110775;28;20523;-70
2022/02/10 23:06:19;;;;;;;5.10;3.40;;;;;;;;;;5107473;28;20462;-70
2022/02/10 23:08:46;;;;;;;7.00;4.33;;;;;;;;;;5111246;28;20439;-70
2022/02/10 23:11:16;;;;;;;4.20;3.30;;;;;;;;;;5111334;28;20446;-70
2022/02/10 23:13:45;;;;;;;5.63;3.50;;;;;;;;;;5107393;28;20482;-70
2022/02/10 23:16:14;;;;;;;7.13;3.43;;;;;;;;;;5110326;28;20475;-70
2022/02/10 23:18:42;;;;;;;8.40;3.67;;;;;;;;;;5112759;28;20439;-69
2022/02/10 23:21:12;;;;;;;4.50;3.37;;;;;;;;;;5110648;28;20451;-70
2022/02/10 23:23:43;;;;;;;9.27;4.03;;;;;;;;;;5110901;28;20466;-70
2022/02/10 23:26:11;;;;;;;7.10;3.70;;;;;;;;;;5110356;28;20447;-70
2022/02/10 23:28:39;;;;;;;6.40;3.73;;;;;;;;;;5110855;28;20558;-70
2022/02/10 23:31:07;;;;;;;3.70;3.27;;;;;;;;;;5110537;28;20915;-70
2022/02/10 23:33:37;;;;;;;5.43;3.80;;;;;;;;;;5111083;28;20447;-70
2022/02/10 23:39:06;;;;;;;4.30;3.60;;;;;;;;;;5106737;28;20505;-69
2022/02/10 23:41:56;;;;;;;5.03;3.80;;;;;;;;;;5110020;28;20475;-70
2022/02/10 23:44:26;;;;;;;5.27;3.57;;;;;;;;;;5110760;28;21090;-70
2022/02/10 23:46:54;;;;;;;10.70;4.63;;;;;;;;;;5110915;28;20482;-70
2022/02/10 23:49:23;;;;;;;5.67;3.60;;;;;;;;;;5110213;28;20527;-70
2022/02/10 23:51:55;;;;;;;5.13;3.80;;;;;;;;;;5110700;28;20440;-69
2022/02/10 23:54:24;;;;;;;4.40;3.10;;;;;;;;;;5107022;28;20483;-70
2022/02/10 23:56:57;;;;;;;8.37;4.17;;;;;;;;;;5110713;28;20571;-70
2022/02/10 23:59:36;;;;;;;4.70;3.87;;;;;;;;;;5110180;28;20435;-70
